createdAt,value
2019-04-06T09:27:18.888Z,9.60
2019-04-06T09:29:47.336Z,9.03
2019-04-06T09:32:16.024Z,8.97
2019-04-06T09:34:44.554Z,8.90
2019-04-06T09:37:12.987Z,8.50
2019-04-06T09:39:41.503Z,11.77
2019-04-06T09:42:10.123Z,12.67
2019-04-06T09:44:43.092Z,12.90
2019-04-06T09:47:28.751Z,13.67
2019-04-06T09:50:21.277Z,15.10
2019-04-06T09:52:51.426Z,13.43
2019-04-06T09:55:21.959Z,13.27
2019-04-06T09:58:01.151Z,13.00
2019-04-06T10:00:31.269Z,13.87
2019-04-06T10:03:17.921Z,12.53
2019-04-06T10:05:56.491Z,12.33
2019-04-06T10:08:26.793Z,12.53
2019-04-06T10:11:13.284Z,12.77
2019-04-06T10:14:00.130Z,13.47
2019-04-06T10:16:46.464Z,13.20
2019-04-06T10:19:19.170Z,13.53
2019-04-06T10:22:05.676Z,13.57
2019-04-06T10:24:35.927Z,12.80
2019-04-06T10:27:14.534Z,13.13
2019-04-06T10:30:03.766Z,11.50
2019-04-06T10:32:37.117Z,11.93
2019-04-06T10:35:07.371Z,12.83
2019-04-06T10:37:54.068Z,12.67
2019-04-06T10:40:24.701Z,13.50
2019-04-06T10:43:11.427Z,13.50
2019-04-06T10:45:44.279Z,12.30
2019-04-06T10:48:14.431Z,12.83
2019-04-06T10:51:02.904Z,13.27
2019-04-06T10:53:35.720Z,12.93
2019-04-06T10:56:06.036Z,13.60
2019-04-06T10:58:39.196Z,14.37
2019-04-06T11:01:12.369Z,13.13
2019-04-06T11:03:45.407Z,13.47
2019-04-06T11:06:15.525Z,14.13
2019-04-06T11:08:45.711Z,13.97
2019-04-06T11:11:32.107Z,12.60
2019-04-06T11:14:04.996Z,15.00
2019-04-06T11:16:51.717Z,14.47
2019-04-06T11:19:37.152Z,14.63
2019-04-06T11:22:25.074Z,13.60
2019-04-06T11:25:11.123Z,14.07
2019-04-06T11:27:56.382Z,14.07
2019-04-06T11:30:29.268Z,13.23
2019-04-06T11:32:59.417Z,14.20
2019-04-06T11:35:45.784Z,12.93
2019-04-06T11:38:18.590Z,13.00
2019-04-06T11:41:00.888Z,11.30
2019-04-06T11:43:49.085Z,11.40
2019-04-06T11:46:34.236Z,11.97
2019-04-06T11:49:04.455Z,12.43
2019-04-06T11:51:34.796Z,14.13
2019-04-06T11:54:10.691Z,12.73
2019-04-06T11:56:43.763Z,12.83
2019-04-06T11:59:19.561Z,13.90
2019-04-06T12:02:04.793Z,12.63
2019-04-06T12:04:51.077Z,12.17
2019-04-06T12:07:21.079Z,12.33
2019-04-06T12:09:53.749Z,12.90
2019-04-06T12:12:23.971Z,13.93
2019-04-06T12:15:02.754Z,12.23
2019-04-06T12:17:47.805Z,14.27
2019-04-06T12:20:17.876Z,12.90
2019-04-06T12:23:06.070Z,12.57
2019-04-06T12:25:45.055Z,12.33
2019-04-06T12:28:17.806Z,11.50
2019-04-06T12:30:57.047Z,12.70
2019-04-06T12:33:27.482Z,11.37
2019-04-06T12:35:58.070Z,11.73
2019-04-06T12:38:33.834Z,10.63
2019-04-06T12:41:12.904Z,11.33
2019-04-06T12:43:52.081Z,10.53
2019-04-06T12:46:40.613Z,10.40
2019-04-06T12:49:27.262Z,11.37
2019-04-06T12:51:57.347Z,11.83
2019-04-06T12:54:44.271Z,12.77
2019-04-06T12:57:17.024Z,14.20
2019-04-06T12:59:47.160Z,12.97
2019-04-06T13:02:33.720Z,12.13
2019-04-06T13:05:07.060Z,12.40
2019-04-06T13:07:49.457Z,12.77
2019-04-06T13:10:19.565Z,13.60
2019-04-06T13:12:58.858Z,13.80
2019-04-06T13:15:31.957Z,13.43
2019-04-06T13:18:04.842Z,14.03
2019-04-06T13:20:51.189Z,13.37
2019-04-06T13:23:36.141Z,15.33
2019-04-06T13:26:06.412Z,14.10
2019-04-06T13:28:36.578Z,14.77
2019-04-06T13:31:09.770Z,14.33
2019-04-06T13:33:56.710Z,13.43
2019-04-06T13:36:27.033Z,14.50
2019-04-06T13:39:05.954Z,15.30
2019-04-06T13:41:53.701Z,14.57
2019-04-06T13:44:23.749Z,13.60
2019-04-06T13:46:59.615Z,14.70
2019-04-06T13:49:35.446Z,14.60
2019-04-06T13:52:14.592Z,15.23
2019-04-06T13:54:44.831Z,14.47
2019-04-06T13:57:33.276Z,14.97
2019-04-06T14:00:12.389Z,14.37
2019-04-06T14:02:58.969Z,13.73
2019-04-06T14:05:35.848Z,13.77
2019-04-06T14:08:12.048Z,14.50
2019-04-06T14:10:42.270Z,13.70
2019-04-06T14:13:18.549Z,14.10
2019-04-06T14:16:01.054Z,14.37
2019-04-06T14:18:49.793Z,13.23
2019-04-06T14:21:36.350Z,14.80
2019-04-06T14:24:12.512Z,14.70
2019-04-06T14:26:51.612Z,14.20
2019-04-06T14:29:28.075Z,14.80
2019-04-06T14:31:58.392Z,14.47
2019-04-06T14:34:28.475Z,16.53
2019-04-06T14:37:10.677Z,14.57
2019-04-06T14:39:58.825Z,52.23
2019-04-06T14:42:48.225Z,19.90
2019-04-06T14:45:35.546Z,12.60
2019-04-06T14:48:09.577Z,13.03
2019-04-06T14:50:44.123Z,13.33
2019-04-06T14:53:17.316Z,12.80
2019-04-06T14:55:55.039Z,12.90
2019-04-06T14:58:35.719Z,12.37
2019-04-06T15:01:08.675Z,12.13
2019-04-06T15:03:45.280Z,13.20
2019-04-06T15:06:15.514Z,13.33
2019-04-06T15:08:48.828Z,12.57
2019-04-06T15:11:37.331Z,12.10
2019-04-06T15:14:25.583Z,13.07
2019-04-06T15:17:05.897Z,13.60
2019-04-06T15:19:55.953Z,13.17
2019-04-06T15:22:28.810Z,11.40
2019-04-06T15:25:01.434Z,10.83
2019-04-06T15:27:47.990Z,10.80
2019-04-06T15:30:34.095Z,10.30
2019-04-06T15:33:06.956Z,11.00
2019-04-06T15:35:53.691Z,11.23
2019-04-06T15:38:38.824Z,11.37
2019-04-06T15:41:09.045Z,11.07
2019-04-06T15:43:44.942Z,11.10
2019-04-06T15:46:15.199Z,11.83
2019-04-06T15:48:51.178Z,10.47
2019-04-06T15:51:27.114Z,11.43
2019-04-06T15:54:08.973Z,12.03
2019-04-06T15:56:54.860Z,13.00
2019-04-06T15:59:27.898Z,12.43
2019-04-06T16:02:01.468Z,12.57
2019-04-06T16:04:30.100Z,11.57
2019-04-06T16:07:16.305Z,11.73
2019-04-06T16:09:52.527Z,11.63
2019-04-06T16:12:30.212Z,11.87
2019-04-06T16:15:02.985Z,12.00
2019-04-06T16:17:33.200Z,14.13
2019-04-06T16:20:03.298Z,17.00
2019-04-06T16:22:49.745Z,20.03
2019-04-06T16:25:23.519Z,20.90
2019-04-06T16:27:59.541Z,21.27
2019-04-06T16:30:29.984Z,19.90
2019-04-06T16:33:12.729Z,17.77
2019-04-06T16:35:48.928Z,16.40
2019-04-06T16:38:24.878Z,36.57
2019-04-06T16:41:01.151Z,15.97
2019-04-06T16:43:47.774Z,14.23
2019-04-06T16:46:17.877Z,13.07
2019-04-06T16:48:53.944Z,12.43
2019-04-06T16:51:30.283Z,11.93
2019-04-06T16:54:03.323Z,11.67
2019-04-06T16:56:45.313Z,12.50
2019-04-06T16:59:15.450Z,12.93
2019-04-06T17:01:45.610Z,12.23
2019-04-06T17:04:30.637Z,11.73
2019-04-06T17:07:06.689Z,12.07
2019-04-06T17:09:48.970Z,13.03
2019-04-06T17:12:35.308Z,12.17
2019-04-06T17:15:12.272Z,13.40
2019-04-06T17:17:45.065Z,12.50
2019-04-06T17:20:31.801Z,11.73
2019-04-06T17:23:05.114Z,11.87
2019-04-06T17:25:43.944Z,12.43
2019-04-06T17:28:19.913Z,13.43
2019-04-06T17:31:06.203Z,13.77
2019-04-06T17:33:44.897Z,12.73
2019-04-06T17:36:15.821Z,12.67
2019-04-06T17:38:45.979Z,15.17
2019-04-06T17:41:16.114Z,12.37
2019-04-06T17:44:02.582Z,12.57
2019-04-06T17:46:44.622Z,13.07
2019-04-06T17:49:25.239Z,12.70
2019-04-06T17:52:04.248Z,12.90
2019-04-06T17:58:02.540Z,10.97
2019-04-06T18:00:51.525Z,12.90
2019-04-06T18:03:38.553Z,13.40
2019-04-06T18:06:09.053Z,14.00
2019-04-06T18:08:55.282Z,13.20
2019-04-06T18:11:28.346Z,12.73
2019-04-06T18:13:56.839Z,12.70
2019-04-06T18:16:26.938Z,12.43
2019-04-06T18:18:55.463Z,13.00
2019-04-06T18:21:23.920Z,12.83
2019-04-06T18:23:52.335Z,13.60
2019-04-06T18:26:20.805Z,13.37
2019-04-06T18:28:49.352Z,13.07
2019-04-06T18:31:35.665Z,13.17
2019-04-06T18:34:04.214Z,13.20
2019-04-06T18:36:37.144Z,14.03
2019-04-06T18:39:10.918Z,13.80
2019-04-06T18:41:39.729Z,13.37
2019-04-06T18:44:08.334Z,13.43
2019-04-06T18:46:37.139Z,13.07
2019-04-06T18:49:05.657Z,14.13
2019-04-06T18:51:34.146Z,14.33
2019-04-06T18:54:04.565Z,12.50
2019-04-06T18:56:32.776Z,11.17
2019-04-06T18:59:01.299Z,11.43
2019-04-06T19:01:30.199Z,11.70
2019-04-06T19:03:58.680Z,10.73
2019-04-06T19:06:27.275Z,10.57
2019-04-06T19:08:55.807Z,11.00
2019-04-06T19:11:24.252Z,10.70
2019-04-06T19:13:53.306Z,10.13
2019-04-06T19:16:22.004Z,9.80
2019-04-06T19:18:50.379Z,9.17
2019-04-06T19:21:18.877Z,9.33
2019-04-06T19:23:47.780Z,9.73
2019-04-06T19:26:16.224Z,10.00
2019-04-06T19:28:44.720Z,9.37
2019-04-06T19:31:13.501Z,9.40
2019-04-06T19:33:42.125Z,8.63
2019-04-06T19:36:10.703Z,8.90
2019-04-06T19:38:39.301Z,9.00
2019-04-06T19:41:07.731Z,8.50
2019-04-06T19:43:36.225Z,9.63
2019-04-06T19:46:04.822Z,8.73
2019-04-06T19:48:33.648Z,8.63
2019-04-06T19:51:02.184Z,9.43
2019-04-06T19:53:30.647Z,9.50
2019-04-06T19:55:59.086Z,8.60
2019-04-06T19:58:27.981Z,8.63
2019-04-06T20:00:56.668Z,8.00
2019-04-06T20:03:34.073Z,8.83
2019-04-06T20:05:55.312Z,9.03
2019-04-06T20:08:23.888Z,9.27
2019-04-06T20:10:52.315Z,8.27
2019-04-06T20:13:21.052Z,9.23
2019-04-06T20:15:49.637Z,8.63
2019-04-06T20:18:18.105Z,8.87
2019-04-06T20:20:46.551Z,8.83
2019-04-06T20:23:15.065Z,9.03
2019-04-06T20:25:43.573Z,8.40
2019-04-06T20:28:12.073Z,9.13
2019-04-06T20:30:40.789Z,9.03
2019-04-06T20:33:09.933Z,9.53
2019-04-06T20:35:38.500Z,9.10
2019-04-06T20:38:07.142Z,9.03
2019-04-06T20:40:35.654Z,8.23
2019-04-06T20:43:04.078Z,8.27
2019-04-06T20:45:32.539Z,7.77
2019-04-06T20:48:01.042Z,8.07
2019-04-06T20:50:29.902Z,8.13
2019-04-06T20:52:58.416Z,7.77
2019-04-06T20:55:26.837Z,8.50
2019-04-06T20:57:55.332Z,8.07
2019-04-06T21:00:23.941Z,7.80
2019-04-06T21:02:52.501Z,7.70
2019-04-06T21:05:24.482Z,8.73
2019-04-06T21:07:52.933Z,8.23
2019-04-06T21:10:21.435Z,7.23
2019-04-06T21:12:50.022Z,8.10
2019-04-06T21:15:21.085Z,8.33
2019-04-06T21:17:49.388Z,8.33
2019-04-06T21:20:18.349Z,8.17
2019-04-06T21:22:46.775Z,8.00
2019-04-06T21:25:15.694Z,8.17
2019-04-06T21:27:44.848Z,7.87
2019-04-06T21:30:13.542Z,7.90
2019-04-06T21:32:42.472Z,7.60
2019-04-06T21:35:11.434Z,8.40
2019-04-06T21:37:39.987Z,8.13
2019-04-06T21:40:09.140Z,7.63
2019-04-06T21:42:37.733Z,8.23
2019-04-06T21:45:07.977Z,8.57
2019-04-06T21:47:36.494Z,7.70
2019-04-06T21:50:08.702Z,7.37
2019-04-06T21:52:37.275Z,7.33
2019-04-06T21:55:07.744Z,7.90
2019-04-06T21:57:36.472Z,8.30
2019-04-06T22:00:09.261Z,7.97
2019-04-06T22:02:39.075Z,7.83
2019-04-06T22:05:08.282Z,7.67
2019-04-06T22:07:47.237Z,7.43
2019-04-06T22:10:07.269Z,7.63
2019-04-06T22:12:35.767Z,7.37
2019-04-06T22:15:05.877Z,6.17
2019-04-06T22:17:34.981Z,6.57
2019-04-06T22:20:04.559Z,7.43
2019-04-06T22:22:33.441Z,6.97
2019-04-06T22:25:02.315Z,7.33
2019-04-06T22:27:31.193Z,7.57
2019-04-06T22:30:00.331Z,7.50
2019-04-06T22:32:28.915Z,7.17
2019-04-06T22:34:57.939Z,7.70
2019-04-06T22:37:26.485Z,7.80
2019-04-06T22:39:54.958Z,7.97
2019-04-06T22:42:23.850Z,7.50
2019-04-06T22:44:52.306Z,7.20
2019-04-06T22:47:20.929Z,7.93
2019-04-06T22:49:49.853Z,8.17
2019-04-06T22:52:18.408Z,8.37
2019-04-06T22:54:46.966Z,7.83
2019-04-06T22:57:15.971Z,8.33
2019-04-06T22:59:44.726Z,8.00
2019-04-06T23:02:13.227Z,7.90
2019-04-06T23:04:48.516Z,7.27
2019-04-06T23:07:15.199Z,8.20
2019-04-06T23:09:43.926Z,7.60
2019-04-06T23:12:12.897Z,8.00
2019-04-06T23:14:42.008Z,8.13
2019-04-06T23:17:10.558Z,7.80
2019-04-06T23:19:39.183Z,7.93
2019-04-06T23:22:07.668Z,8.57
2019-04-06T23:24:36.332Z,7.40
2019-04-06T23:27:04.881Z,7.70
2019-04-06T23:29:33.717Z,8.10
2019-04-06T23:32:02.635Z,7.77
2019-04-06T23:34:31.296Z,8.13
2019-04-06T23:37:00.637Z,7.67
2019-04-06T23:39:29.689Z,7.27
2019-04-06T23:41:58.118Z,7.93
2019-04-06T23:44:26.686Z,7.37
2019-04-06T23:46:55.189Z,7.63
2019-04-06T23:49:23.672Z,7.80
2019-04-06T23:51:52.275Z,7.47
2019-04-06T23:54:20.702Z,8.30
2019-04-06T23:56:49.672Z,8.57
2019-04-06T23:59:19.936Z,8.43
